Valle Toledo, Valles Caldera, New Mexico Weather observations

Data are for 10 minute period ending at time listed.
 Day   Time   Solar   Ave.   Ave.  Ave.  Vector  Max.   Baro.   Total    
  of    of     Rad.   Air    Rel.  Wind   Wind   Wind  Press.  Precip.   
Year   Day            Temp.  Hum.  Speed  Dir.   Gust                    
2016   (MST)  Kw/m2    F      %     mph   deg.    mph    mb.     in.     
-------------------------------------------------------------------------
  41   10:30   0.57   61.2     7    2.6   327     6.0   738.0    0.00 
  41   10:40   0.59   61.0     7    1.9   290     5.4   738.1    0.00 
  41   10:50   0.61   62.3     7    2.1   325     4.2   738.0    0.00 
  41   11:00   0.63   65.9     6    2.8   335     5.4   738.1    0.00 
  41   11:10   0.65   64.5     7    2.9    13     5.4   738.0    0.00 
  41   11:20   0.66   62.8     7    1.9   321     4.8   738.0    0.00 
  41   11:30   0.68   66.0     6    1.8   299     4.8   737.9    0.00 
  41   11:40   0.69   59.7     9    2.5   243     4.8   737.9    0.00 
  41   11:50   0.70   58.0     9    3.0   208     9.6   737.8    0.00 
  41   12:00   0.70   54.0    11    4.9   226     9.0   737.7    0.00 
  41   12:10   0.71   53.8    11    5.0   267     9.6   737.6    0.00 
  41   12:20   0.71   55.7    10    5.9   269    10.2   737.4    0.00 
  41   12:30   0.71   53.6    12    6.0   253    12.5   737.3    0.00 
  41   12:40   0.71   53.5    11    7.0   254    11.3   737.2    0.00 
  41   12:50   0.71   55.5     9    8.0   284    13.1   737.0    0.00 
  41   13:00   0.71   55.1    10    7.3   278    14.3   736.9    0.00 
  41   13:10   0.70   57.9     9    7.2   298    13.1   736.8    0.00 
  41   13:20   0.69   58.4     8    8.2   314    14.3   736.7    0.00 
  41   13:30   0.68   58.7     8    9.6   313    18.5   736.6    0.00 
  41   13:40   0.67   58.5     8    7.2   295    19.1   736.6    0.00 
  41   13:50   0.66   58.3     8    6.8   302    12.5   736.4    0.00 
  41   14:00   0.64   59.5     8    7.4   313    11.3   736.3    0.00 
  41   14:10   0.62   57.3     8    8.6   297    16.1   736.3    0.00 
  41   14:20   0.60   56.8     8    7.4   286    13.1   736.3    0.00 
  41   14:30   0.58   56.2     9    9.3   292    16.1   736.3    0.00 
  41   14:40   0.56   55.3     9    9.1   305    14.9   736.3    0.00 
  41   14:50   0.54   56.1     8    9.0   288    17.9   736.2    0.00 
  41   15:00   0.51   54.8     9    7.9   297    15.5   736.2    0.00 
  41   15:10   0.48   54.6    10    7.5   280    14.3   736.2    0.00 
  41   15:20   0.46   53.2    10    9.7   294    14.9   736.2    0.00 
  41   15:30   0.43   54.8     9    8.0   294    15.5   736.3    0.00 
  41   15:40   0.40   55.3     9    7.4   299    13.7   736.2    0.00 
  41   15:50   0.37   55.1     9    6.2   287    10.2   736.2    0.00 
  41   16:00   0.34   55.0    10    6.8   302    11.9   736.1    0.00 
  41   16:10   0.30   56.0     9    7.0   306    13.7   736.1    0.00 
  41   16:20   0.27   55.6     9    7.2   312    11.9   736.1    0.00 
  41   16:30   0.24   54.3     9    8.9   306    14.9   736.1    0.00 
  41   16:40   0.21   53.1     9    9.3   309    13.7   736.1    0.00 
  41   16:50   0.17   52.4    10    9.0   313    13.7   736.1    0.00 
  41   17:00   0.14   51.4    10    9.2   315    16.7   736.0    0.00 
  41   17:10   0.10   50.6    11    7.2   312    11.9   735.9    0.00 
  41   17:20   0.06   49.2    11    8.4   314    15.5   735.9    0.00 
  41   17:30   0.02   46.3    12    8.3   316    12.5   735.8    0.00 
  41   17:40   0.01   43.8    12    6.9   323    11.3   735.7    0.00 
  41   17:50   0.00   42.6    12    7.0   338    10.8   735.7    0.00 
  41   18:00   0.00   41.8    12    5.8   337    11.3   735.7    0.00 
  41   18:10   0.00   41.5    12    7.0   332    13.7   735.8    0.00 
  41   18:20   0.00   41.0    12    5.8   333    10.2   735.8    0.00 
  41   18:30   0.00   40.6    13    5.8   331    10.8   736.0    0.00 
  41   18:40   0.00   40.1    13    6.7   319    13.7   736.0    0.00 
  41   18:50   0.00   39.4    14    3.4   278     9.0   735.9    0.00 
  41   19:00   0.00   38.5    15    1.7   184     4.2   736.0    0.00 
  41   19:10   0.00   39.1    14    6.1   306    14.3   736.0    0.00 
  41   19:20   0.00   39.5    14    6.6   321    12.5   736.0    0.00 
  41   19:30   0.00   39.2    15    7.0   313    16.1   736.0    0.00 
  41   19:40   0.00   38.6    17    4.6   313     9.0   736.0    0.00 
  41   19:50   0.00   38.6    16    5.3   319    14.3   736.0    0.00 
  41   20:00   0.00   38.9    16    4.9   328    10.2   736.0    0.00 
  41   20:10   0.00   38.8    16    6.5   325    13.1   736.0    0.00 
  41   20:20   0.00   39.0    17    8.0   331    14.3   735.9    0.00 
  41   20:30   0.00   38.9    18    8.2   327    16.7   735.9    0.00 
  41   20:40   0.00   39.1    17    9.0   320    15.5   735.8    0.00 
  41   20:50   0.00   39.1    17    7.8   331    14.9   735.7    0.00 
  41   21:00   0.00   39.2    17    9.8   328    17.9   735.7    0.00 
  41   21:10   0.00   39.3    17    9.5   334    17.9   735.8    0.00 
  41   21:20   0.00   39.4    17   11.4   333    18.5   735.8    0.00 
  41   21:30   0.00   39.3    17    9.7   331    19.7   735.8    0.00 
  41   21:40   0.00   39.2    16   10.9   326    20.9   735.8    0.00 
  41   21:50   0.00   38.8    18    9.8   326    16.1   735.8    0.00 
  41   22:00   0.00   38.9    18   10.0   330    16.7   735.9    0.00 
  41   22:10   0.00   38.9    18   10.1   330    19.1   735.9    0.00 
  41   22:20   0.00   39.0    17   11.8   329    18.5   735.9    0.00 
  41   22:30   0.00   39.4    16   11.3   336    19.1   735.9    0.00 
  41   22:40   0.00   38.9    17    9.4   335    16.7   735.9    0.00 
  41   22:50   0.00   38.6    17    8.8   334    17.3   735.8    0.00 
  41   23:00   0.00   39.3    15    8.8   331    16.7   735.8    0.00 
  41   23:10   0.00   39.5    15    7.5   338    16.1   735.9    0.00 
  41   23:20   0.00   38.8    17    5.7   336    12.5   735.9    0.00 
  41   23:30   0.00   38.6    16    7.2   342    13.1   735.9    0.00 
  41   23:40   0.00   38.5    16    8.0   333    14.9   735.8    0.00 
  41   23:50   0.00   38.5    17    9.3   340    17.9   735.7    0.00 
  42    0:00   0.00   38.8    17    8.9   324    15.5   735.7    0.00 
  42    0:10   0.00   38.6    17    9.8   319    18.5   735.8    0.00 
  42    0:20   0.00   38.7    18    7.7   318    13.1   735.6    0.00 
  42    0:30   0.00   38.3    19    6.1   331    11.3   735.6    0.00 
  42    0:40   0.00   37.9    19    4.5   324    10.2   735.6    0.00 
  42    0:50   0.00   35.7    21    3.3   136     6.6   735.6    0.00 
  42    1:00   0.00   33.2    23    3.1   104     4.8   735.6    0.00 
  42    1:10   0.00   32.7    24    3.1    89     4.8   735.6    0.00 
  42    1:20   0.00   32.3    26    3.3    94     5.4   735.6    0.00 
  42    1:30   0.00   32.8    24    3.2    86     6.0   735.6    0.00 
  42    1:40   0.00   32.4    26    2.8   101     4.2   735.7    0.00 
  42    1:50   0.00   31.6    26    2.3    90     3.6   735.7    0.00 
  42    2:00   0.00   31.2    26    2.7    83     4.2   735.8    0.00 
  42    2:10   0.00   30.9    27    2.8    87     4.8   735.7    0.00 
  42    2:20   0.00   30.3    29    3.3    60     5.4   735.7    0.00 
  42    2:30   0.00   29.8    29    3.7    62     6.0   735.8    0.00 
  42    2:40   0.00   30.3    31    3.7    54     4.8   735.7    0.00 
  42    2:50   0.00   30.0    31    3.9    49     5.4   735.7    0.00 
  42    3:00   0.00   29.4    31    3.9    39     5.4   735.6    0.00 
  42    3:10   0.00   28.7    33    5.1    38     6.0   735.6    0.00 
  42    3:20   0.00   28.4    35    5.0    36     6.6   735.5    0.00 
  42    3:30   0.00   28.0    36    4.9    37     6.0   735.4    0.00 
  42    3:40   0.00   27.8    37    4.2    46     5.4   735.4    0.00 
  42    3:50   0.00   26.9    40    3.2    13     4.8   735.3    0.00 
  42    4:00   0.00   26.5    40    4.0    47     6.0   735.3    0.00 
  42    4:10   0.00   26.7    40    2.5    55     4.2   735.4    0.00 
  42    4:20   0.00   26.0    38    2.3    34     4.8   735.5    0.00 
  42    4:30   0.00   26.3    35    3.0    48     4.8   735.6    0.00 
  42    4:40   0.00   27.5    32    2.6    40     4.8   735.6    0.00 
  42    4:50   0.00   27.0    33    2.6    42     4.2   735.6    0.00 
  42    5:00   0.00   26.5    34    2.0    43     3.6   735.7    0.00 
  42    5:10   0.00   27.0    32    1.9    60     3.6   735.8    0.00 
  42    5:20   0.00   27.0    31    2.5    58     4.8   735.7    0.00 
  42    5:30   0.00   26.5    34    2.7    46     4.2   735.7    0.00 
  42    5:40   0.00   26.0    35    2.8    41     4.2   735.8    0.00 
  42    5:50   0.00   25.9    35    3.0    49     5.4   735.8    0.00 
  42    6:00   0.00   26.6    34    3.4    43     4.2   735.8    0.00 
  42    6:10   0.00   26.3    36    3.9    35     4.8   735.8    0.00 
  42    6:20   0.00   26.1    37    2.9    38     4.2   735.9    0.00 
  42    6:30   0.00   25.9    39    3.3    44     4.2   735.9    0.00 
  42    6:40   0.00   26.0    39    3.2    41     4.2   735.8    0.00 
  42    6:50   0.00   25.9    38    2.5    36     3.6   735.8    0.00 
  42    7:00   0.00   25.6    41    3.2    40     4.2   735.8    0.00 
  42    7:10   0.01   25.7    42    2.4    42     3.6   735.9    0.00 
  42    7:20   0.01   25.4    39    3.1    40     4.2   735.9    0.00 
  42    7:30   0.01   25.5    42    3.5    39     4.8   736.0    0.00 
  42    7:40   0.01   25.9    41    3.5    43     4.8   736.0    0.00 
  42    7:50   0.12   27.5    35    2.7    30     4.2   736.1    0.00 
  42    8:00   0.14   32.7    29    2.3    34     4.2   736.0    0.00 
  42    8:10   0.19   36.7    25    1.8    40     3.6   736.1    0.00 
  42    8:20   0.22   38.7    24    2.1    52     3.0   736.1    0.00 
  42    8:30   0.23   40.2    22    0.1    46     1.8   736.1    0.00 
  42    8:40   0.07   41.8    20    0.2   347     1.2   736.1    0.00 
  42    8:50   0.07   38.6    24    0.0     0     0.0   736.2    0.00 
  42    9:00   0.05   37.1    24    0.4   322     2.4   736.2    0.00 
  42    9:10   0.22   37.4    24    0.0     0     0.0   736.2    0.00 
  42    9:20   0.40   40.5    16    1.9   307     3.6   736.2    0.00 
  42    9:30   0.43   48.6    12    1.0   310     4.2   736.2    0.00 
  42    9:40   0.46   52.5    11    0.6   271     2.4   736.3    0.00 
  42    9:50   0.48   54.2    10    2.8   313     5.4   736.2    0.00 
  42   10:00   0.51   54.5    10    4.0   311     6.0   736.3    0.00 
  42   10:10   0.53   52.6    10    3.8   288     5.4   736.3    0.00 
  42   10:20   0.56   52.1    10    3.4   297     6.6   736.3    0.00 

Return to Valle Toledo, Valles Caldera graphs page.


Western Regional Climate Center,wrcc@dri.edu